Time;durP1;ratioP1;P1;durP2;ratioP2;P2;SDS_P1;SDS_P2;PMS_P1;PMS_P2;Temp;Humidity;BMP_temperature;BMP_pressure;BME280_temperature;BME280_humidity;BME280_pressure;Samples;Min_cycle;Max_cycle;Signal;HPM_P1;HPM_P2
2022/08/25 00:00:30;;;;;;;25.10;3.38;;;24.20;99.90;;;;;;4916532;29;20040;-90
2022/08/25 00:02:56;;;;;;;33.28;3.83;;;24.30;99.90;;;;;;4914274;29;20067;-91
2022/08/25 00:05:25;;;;;;;20.58;3.33;;;24.30;99.90;;;;;;4897079;29;20076;-90
2022/08/25 00:07:50;;;;;;;21.95;3.67;;;24.40;99.90;;;;;;4914456;29;20477;-90
2022/08/25 00:10:16;;;;;;;20.38;3.20;;;24.40;99.90;;;;;;4897421;29;20047;-89
2022/08/25 00:12:41;;;;;;;18.20;2.55;;;24.40;99.90;;;;;;4914554;29;20029;-89
2022/08/25 00:15:08;;;;;;;16.10;2.22;;;24.50;99.90;;;;;;4914175;29;20028;-90
2022/08/25 00:17:34;;;;;;;9.57;2.15;;;24.60;99.90;;;;;;4914507;29;20021;-89
2022/08/25 00:20:00;;;;;;;12.25;2.15;;;24.60;99.90;;;;;;4914194;29;20099;-90
2022/08/25 00:22:25;;;;;;;4.13;1.17;;;24.60;99.90;;;;;;4897501;29;20032;-89
2022/08/25 00:24:51;;;;;;;6.93;1.10;;;24.70;99.90;;;;;;4914083;29;20012;-90
2022/08/25 00:27:17;;;;;;;9.30;1.30;;;24.70;99.90;;;;;;4913901;29;20597;-89
2022/08/25 00:29:42;;;;;;;3.78;1.02;;;24.80;99.90;;;;;;4914018;29;20500;-90
2022/08/25 00:32:08;;;;;;;7.05;0.98;;;24.80;99.90;;;;;;4913780;29;20477;-89
2022/08/25 00:34:36;;;;;;;6.05;0.85;;;24.80;99.90;;;;;;4890681;29;20497;-89
2022/08/25 00:37:06;;;;;;;1.85;0.95;;;24.90;99.90;;;;;;4907249;29;20039;-90
2022/08/25 00:39:32;;;;;;;9.13;0.90;;;25.00;99.90;;;;;;4913760;29;20422;-90
2022/08/25 00:41:58;;;;;;;4.90;1.40;;;25.00;99.90;;;;;;4897380;29;20401;-90
2022/08/25 00:44:26;;;;;;;4.15;1.00;;;25.00;99.90;;;;;;4916577;29;20249;-89
2022/08/25 00:46:55;;;;;;;3.22;0.75;;;25.00;99.90;;;;;;4921178;29;20020;-89
2022/08/25 00:49:36;;;;;;;4.25;1.08;;;25.00;99.90;;;;;;4921029;29;20032;-90
2022/08/25 00:52:09;;;;;;;6.28;1.00;;;25.00;99.90;;;;;;4920362;29;20039;-90
2022/08/25 00:54:57;;;;;;;4.43;1.10;;;25.00;99.90;;;;;;4919741;29;20016;-90
2022/08/25 00:57:32;;;;;;;6.05;1.00;;;25.10;99.90;;;;;;4919952;29;20032;-89
2022/08/25 00:59:57;;;;;;;4.22;0.90;;;25.20;99.90;;;;;;4919957;29;20024;-90
2022/08/25 01:02:24;;;;;;;1.88;0.73;;;25.20;99.90;;;;;;4920248;29;20035;-90
2022/08/25 01:04:50;;;;;;;4.80;1.30;;;25.20;99.90;;;;;;4919601;29;20050;-90
2022/08/25 01:07:18;;;;;;;2.88;1.08;;;25.30;99.90;;;;;;4919892;29;20044;-90
2022/08/25 01:09:46;;;;;;;3.95;0.90;;;25.30;99.90;;;;;;4902409;29;20032;-90
2022/08/25 01:12:12;;;;;;;1.95;0.90;;;25.20;99.90;;;;;;4920153;29;20024;-90
2022/08/25 01:14:38;;;;;;;3.10;0.93;;;25.20;99.90;;;;;;4920000;29;20032;-90
2022/08/25 01:17:04;;;;;;;4.63;1.05;;;25.20;99.90;;;;;;4902915;29;20020;-91
2022/08/25 01:19:32;;;;;;;3.55;1.00;;;25.10;99.90;;;;;;4920604;29;20509;-90
2022/08/25 01:21:58;;;;;;;3.47;1.15;;;25.10;99.90;;;;;;4920355;29;20028;-90
2022/08/25 01:24:42;;;;;;;2.83;0.80;;;25.10;99.90;;;;;;4902885;29;20397;-90
2022/08/25 01:27:08;;;;;;;4.40;0.93;;;25.00;99.90;;;;;;4919747;29;20028;-91
2022/08/25 01:29:35;;;;;;;1.85;1.00;;;25.00;99.90;;;;;;4920464;29;20075;-89
2022/08/25 01:32:04;;;;;;;1.80;0.82;;;24.90;99.90;;;;;;4920007;29;20028;-89
2022/08/25 01:34:33;;;;;;;2.92;0.90;;;24.90;99.90;;;;;;4902755;29;20485;-90
2022/08/25 01:36:59;;;;;;;2.25;0.90;;;24.90;99.90;;;;;;4919818;29;20541;-90
2022/08/25 01:39:28;;;;;;;2.58;0.82;;;24.80;99.90;;;;;;4899391;29;20017;-90
2022/08/25 01:42:01;;;;;;;2.42;0.80;;;24.80;99.90;;;;;;4909907;29;20028;-91
2022/08/25 01:44:27;;;;;;;1.63;0.90;;;24.80;99.90;;;;;;4919723;29;20020;-90
2022/08/25 01:46:53;;;;;;;0.98;0.80;;;24.70;99.90;;;;;;4919875;29;20047;-90
2022/08/25 01:49:20;;;;;;;4.45;1.20;;;24.70;99.90;;;;;;4919557;29;20099;-89
2022/08/25 01:51:52;;;;;;;1.85;0.80;;;24.60;99.90;;;;;;4928861;29;20188;-89
2022/08/25 01:54:18;;;;;;;3.17;0.90;;;24.50;99.90;;;;;;4930295;29;20016;-90
2022/08/25 01:56:43;;;;;;;1.38;0.90;;;24.40;99.90;;;;;;4940539;29;20028;-89
2022/08/25 01:59:09;;;;;;;2.58;0.90;;;24.30;99.90;;;;;;4940273;29;20047;-90
2022/08/25 02:01:35;;;;;;;1.40;1.00;;;24.10;99.90;;;;;;4936193;29;20034;-90
2022/08/25 02:04:00;;;;;;;1.85;1.25;;;24.00;99.90;;;;;;4916485;29;20028;-90
2022/08/25 02:06:33;;;;;;;4.55;0.90;;;24.00;99.90;;;;;;4916990;29;20024;-89
2022/08/25 02:09:04;;;;;;;1.33;1.02;;;24.00;99.90;;;;;;4916666;29;20032;-90
2022/08/25 02:11:34;;;;;;;0.90;0.73;;;23.90;99.90;;;;;;4916575;29;20032;-89
2022/08/25 02:13:59;;;;;;;2.28;0.70;;;24.00;99.90;;;;;;4916585;29;20083;-88
2022/08/25 02:16:31;;;;;;;1.20;0.90;;;24.00;99.90;;;;;;4916486;29;20036;-89
2022/08/25 02:18:58;;;;;;;3.70;0.93;;;24.00;99.90;;;;;;4916347;29;20025;-91
2022/08/25 02:21:24;;;;;;;2.85;0.95;;;24.10;99.90;;;;;;4916503;29;20039;-89
2022/08/25 02:23:49;;;;;;;2.30;0.90;;;24.10;99.90;;;;;;4915966;29;20498;-91
2022/08/25 02:26:17;;;;;;;1.88;1.02;;;24.10;99.90;;;;;;4916247;29;20061;-89
2022/08/25 02:28:48;;;;;;;4.28;1.10;;;24.10;99.90;;;;;;4899103;29;20028;-89
2022/08/25 02:31:16;;;;;;;4.72;0.90;;;24.10;99.90;;;;;;4915896;29;20067;-89
2022/08/25 02:33:42;;;;;;;2.05;1.00;;;24.10;99.90;;;;;;4896075;29;20306;-90
2022/08/25 02:36:09;;;;;;;2.70;1.02;;;24.10;99.90;;;;;;4915488;29;20059;-89
2022/08/25 02:38:36;;;;;;;3.30;0.98;;;24.20;99.90;;;;;;4915771;29;20355;-89
2022/08/25 02:41:09;;;;;;;5.32;1.10;;;24.20;99.90;;;;;;4915870;29;20103;-90
2022/08/25 02:43:35;;;;;;;2.50;1.20;;;24.20;99.90;;;;;;4916026;29;20039;-90
2022/08/25 02:46:00;;;;;;;5.40;1.13;;;24.10;99.90;;;;;;4915992;29;20756;-89
2022/08/25 02:48:29;;;;;;;5.18;0.90;;;24.00;99.90;;;;;;4916359;29;20500;-88
2022/08/25 02:50:59;;;;;;;1.85;1.20;;;24.00;99.90;;;;;;4916437;29;20075;-89
2022/08/25 02:53:26;;;;;;;4.78;1.30;;;23.90;99.90;;;;;;4916147;29;20025;-89
2022/08/25 02:55:52;;;;;;;5.20;1.10;;;23.80;99.90;;;;;;4916013;29;20028;-90
2022/08/25 02:58:18;;;;;;;7.75;1.23;;;23.80;99.90;;;;;;4915668;29;20050;-89
2022/08/25 03:00:44;;;;;;;3.10;1.30;;;23.80;99.90;;;;;;4915571;29;20032;-90
2022/08/25 03:03:11;;;;;;;3.55;0.88;;;23.70;99.90;;;;;;4915456;29;20528;-89
2022/08/25 03:05:37;;;;;;;3.55;1.20;;;23.70;99.90;;;;;;4915289;29;20473;-90
2022/08/25 03:08:03;;;;;;;1.40;1.08;;;23.80;99.90;;;;;;4915156;29;20055;-89
2022/08/25 03:10:29;;;;;;;3.40;1.30;;;23.70;99.90;;;;;;4890673;29;20480;-90
2022/08/25 03:12:55;;;;;;;1.35;0.90;;;23.80;99.90;;;;;;4910131;29;20108;-90
2022/08/25 03:15:21;;;;;;;4.18;1.10;;;23.80;99.90;;;;;;4915032;29;20032;-89
2022/08/25 03:17:48;;;;;;;2.33;1.00;;;23.70;99.90;;;;;;4895065;29;20020;-90
2022/08/25 03:20:14;;;;;;;1.95;1.20;;;23.70;99.90;;;;;;4913632;29;20034;-90
2022/08/25 03:22:41;;;;;;;2.25;1.00;;;23.70;99.90;;;;;;4915396;29;20614;-90
2022/08/25 03:27:51;;;;;;;;;;;23.70;99.90;;;;;;4923751;29;20309;-90
2022/08/25 03:30:17;;;;;;;3.20;1.38;;;23.80;99.90;;;;;;4917650;29;20159;-91
2022/08/25 03:32:43;;;;;;;2.67;1.20;;;23.70;99.90;;;;;;4895108;29;20017;-89
2022/08/25 03:35:09;;;;;;;4.75;1.30;;;23.70;99.90;;;;;;4907050;29;20035;-89
2022/08/25 03:37:36;;;;;;;3.67;1.10;;;23.50;99.90;;;;;;4914971;29;20016;-91
2022/08/25 03:40:07;;;;;;;2.45;1.10;;;23.50;99.90;;;;;;4914946;29;20020;-90
2022/08/25 03:42:34;;;;;;;2.05;1.20;;;23.40;99.90;;;;;;4914667;29;20397;-90
2022/08/25 03:45:02;;;;;;;2.70;1.17;;;23.40;99.90;;;;;;4897766;29;20080;-90
2022/08/25 03:47:28;;;;;;;2.53;1.30;;;23.40;99.90;;;;;;4898073;29;20465;-90
2022/08/25 03:49:54;;;;;;;3.88;1.40;;;23.50;99.90;;;;;;4914788;29;20043;-90
2022/08/25 03:52:20;;;;;;;2.88;1.05;;;23.50;99.90;;;;;;4897989;29;20032;-89
2022/08/25 03:54:46;;;;;;;3.60;1.20;;;23.50;99.90;;;;;;4914792;29;20078;-90
2022/08/25 03:57:12;;;;;;;1.92;0.98;;;23.60;99.90;;;;;;4915112;29;20042;-89
2022/08/25 03:59:37;;;;;;;3.95;1.05;;;23.60;99.90;;;;;;4914778;29;20111;-89
2022/08/25 04:02:05;;;;;;;4.07;1.02;;;23.50;99.90;;;;;;4914706;29;20035;-89
2022/08/25 04:04:31;;;;;;;5.15;1.20;;;23.50;99.90;;;;;;4914070;29;20532;-89
2022/08/25 04:06:58;;;;;;;3.40;1.30;;;23.40;99.90;;;;;;4913078;29;20413;-89
2022/08/25 04:09:24;;;;;;;5.72;1.17;;;23.30;99.90;;;;;;4915555;29;20020;-91
2022/08/25 04:11:51;;;;;;;5.93;1.30;;;23.20;99.90;;;;;;4914488;29;20074;-91
2022/08/25 04:14:17;;;;;;;8.52;1.20;;;23.10;99.90;;;;;;4914542;29;20127;-89
2022/08/25 04:16:43;;;;;;;8.05;1.95;;;23.00;99.90;;;;;;4914208;29;20032;-89
2022/08/25 04:19:09;;;;;;;9.02;1.77;;;22.90;99.90;;;;;;4896704;29;20024;-90
2022/08/25 04:21:37;;;;;;;7.25;1.50;;;22.70;99.90;;;;;;4915435;29;20039;-91
2022/08/25 04:24:04;;;;;;;8.73;1.98;;;22.60;99.90;;;;;;4916424;29;20020;-91
2022/08/25 04:26:42;;;;;;;12.02;1.98;;;22.50;99.90;;;;;;4914541;29;20028;-90
2022/08/25 04:29:09;;;;;;;11.25;2.00;;;22.40;99.90;;;;;;4914940;29;20039;-90
2022/08/25 04:31:39;;;;;;;13.93;2.28;;;22.30;99.90;;;;;;4897477;29;20044;-90
2022/08/25 04:34:05;;;;;;;17.90;3.00;;;22.30;99.90;;;;;;4914593;29;20075;-90
2022/08/25 04:36:31;;;;;;;17.20;2.28;;;22.20;99.90;;;;;;4897447;29;20035;-90
2022/08/25 04:38:57;;;;;;;25.08;4.18;;;22.10;99.90;;;;;;4914335;29;20024;-92
2022/08/25 04:41:24;;;;;;;19.05;3.42;;;22.00;99.90;;;;;;4924241;29;20024;-89
2022/08/25 04:43:51;;;;;;;20.90;3.03;;;22.00;99.90;;;;;;4920252;29;20036;-88
2022/08/25 04:46:20;;;;;;;22.70;4.13;;;21.90;99.90;;;;;;4927871;29;20036;-89
2022/08/25 04:48:47;;;;;;;18.15;4.47;;;21.90;99.90;;;;;;4914536;29;20175;-90
2022/08/25 04:51:15;;;;;;;21.20;3.60;;;21.90;99.90;;;;;;4914043;29;20272;-88
2022/08/25 04:53:41;;;;;;;20.63;2.83;;;22.00;99.90;;;;;;4914009;29;20584;-90
2022/08/25 04:56:12;;;;;;;18.20;3.75;;;22.00;99.90;;;;;;4914870;29;20148;-89
2022/08/25 04:58:39;;;;;;;27.98;4.22;;;22.00;99.90;;;;;;4898444;29;20032;-91
2022/08/25 05:01:10;;;;;;;19.98;3.28;;;22.00;99.90;;;;;;4919053;29;20032;-96
2022/08/25 05:03:36;;;;;;;17.35;3.13;;;22.00;99.90;;;;;;4894309;29;20031;-89
2022/08/25 05:06:03;;;;;;;19.70;2.55;;;21.90;99.90;;;;;;4909169;29;20059;-90
2022/08/25 05:08:33;;;;;;;18.80;3.17;;;21.80;99.90;;;;;;4897231;29;20047;-91
2022/08/25 05:11:03;;;;;;;14.65;2.65;;;21.80;99.90;;;;;;4914136;29;20036;-89
2022/08/25 05:13:29;;;;;;;14.18;2.85;;;21.90;99.90;;;;;;4914201;29;20020;-90
2022/08/25 05:15:57;;;;;;;18.65;2.75;;;21.90;99.90;;;;;;4914230;29;20040;-89
2022/08/25 05:18:24;;;;;;;16.65;2.70;;;21.90;99.90;;;;;;4897350;29;20058;-89
2022/08/25 05:20:54;;;;;;;18.98;3.45;;;21.90;99.90;;;;;;4913960;29;20027;-89
2022/08/25 05:23:22;;;;;;;19.90;3.33;;;21.90;99.90;;;;;;4897044;29;20056;-89
2022/08/25 05:25:49;;;;;;;14.63;2.88;;;22.00;99.90;;;;;;4913762;29;20035;-88
2022/08/25 05:28:16;;;;;;;12.35;2.28;;;22.10;99.90;;;;;;4913986;29;20031;-89
2022/08/25 05:30:43;;;;;;;10.05;2.08;;;22.20;99.90;;;;;;4913919;29;20091;-88
2022/08/25 05:33:10;;;;;;;13.43;2.45;;;22.20;99.90;;;;;;4909272;29;20048;-89
2022/08/25 05:35:36;;;;;;;14.02;2.45;;;22.10;99.90;;;;;;4913093;29;20507;-89
2022/08/25 05:38:03;;;;;;;18.77;2.90;;;22.20;99.90;;;;;;4917340;29;20020;-89
2022/08/25 05:40:29;;;;;;;15.30;2.38;;;22.20;99.90;;;;;;4917453;29;20032;-89
2022/08/25 05:42:55;;;;;;;21.13;3.55;;;22.10;99.90;;;;;;4917155;29;20020;-89
2022/08/25 05:45:21;;;;;;;10.75;2.72;;;22.10;99.90;;;;;;4889607;29;20568;-89
2022/08/25 05:47:47;;;;;;;13.27;2.28;;;22.30;99.90;;;;;;4914867;29;20020;-89
2022/08/25 05:50:14;;;;;;;16.17;2.55;;;22.20;99.90;;;;;;4917126;29;20035;-88
2022/08/25 05:52:40;;;;;;;16.40;2.97;;;22.30;99.90;;;;;;4917400;29;20032;-89
2022/08/25 05:55:06;;;;;;;17.67;3.00;;;22.30;99.90;;;;;;4900519;29;20028;-88
2022/08/25 05:57:33;;;;;;;12.48;2.38;;;22.30;99.90;;;;;;4917301;29;20067;-88
2022/08/25 05:59:58;;;;;;;17.50;2.83;;;22.30;99.90;;;;;;4916934;29;20024;-88
2022/08/25 06:02:45;;;;;;;15.43;2.15;;;22.30;99.90;;;;;;4896804;29;20135;-88
2022/08/25 06:05:17;;;;;;;17.20;2.78;;;22.20;99.90;;;;;;4903922;29;20119;-88
2022/08/25 06:07:49;;;;;;;17.52;3.38;;;22.30;99.90;;;;;;4899853;29;20032;-88
2022/08/25 06:10:16;;;;;;;15.90;2.60;;;22.20;99.90;;;;;;4899591;29;20071;-88
2022/08/25 06:12:43;;;;;;;13.70;2.88;;;22.20;99.90;;;;;;4916773;29;20048;-88
2022/08/25 06:15:16;;;;;;;13.88;2.97;;;22.30;99.90;;;;;;4916756;29;20027;-88
2022/08/25 06:17:42;;;;;;;12.93;2.40;;;22.20;99.90;;;;;;4916794;29;20548;-89
2022/08/25 06:20:10;;;;;;;14.65;2.70;;;22.20;99.90;;;;;;4899543;29;20028;-88
2022/08/25 06:22:36;;;;;;;14.93;2.97;;;22.20;99.90;;;;;;4902132;29;20024;-88
2022/08/25 06:25:06;;;;;;;18.55;2.35;;;22.30;99.90;;;;;;4916312;29;20409;-88
2022/08/25 06:27:33;;;;;;;11.57;2.40;;;22.30;99.90;;;;;;4916274;29;20095;-88
2022/08/25 06:30:03;;;;;;;18.13;2.40;;;22.40;99.90;;;;;;4889211;29;20039;-88
2022/08/25 06:32:34;;;;;;;15.25;2.55;;;22.40;99.90;;;;;;4914084;29;20503;-88
2022/08/25 06:35:01;;;;;;;21.10;3.60;;;22.40;99.90;;;;;;4916441;29;20066;-87
2022/08/25 06:37:27;;;;;;;16.30;2.67;;;22.40;99.90;;;;;;4917094;29;20024;-88
2022/08/25 06:39:52;;;;;;;19.58;3.15;;;22.50;99.90;;;;;;4899772;29;20016;-87
2022/08/25 06:42:18;;;;;;;22.35;3.58;;;22.50;99.90;;;;;;4916370;29;20056;-88
2022/08/25 06:44:44;;;;;;;16.67;2.50;;;22.50;99.90;;;;;;4916217;29;20392;-88
2022/08/25 06:47:10;;;;;;;23.60;3.15;;;22.50;99.90;;;;;;4916109;29;20616;-88
2022/08/25 06:49:36;;;;;;;15.07;2.95;;;22.50;99.90;;;;;;4915776;29;20082;-88
2022/08/25 06:52:02;;;;;;;16.35;2.25;;;22.50;99.90;;;;;;4916032;29;20044;-88
2022/08/25 06:54:28;;;;;;;16.20;2.25;;;22.40;99.90;;;;;;4915833;29;20020;-88
2022/08/25 06:56:53;;;;;;;21.10;3.10;;;22.40;99.90;;;;;;4916019;29;20489;-87
2022/08/25 06:59:19;;;;;;;17.05;2.63;;;22.40;99.90;;;;;;4916217;29;20111;-88
2022/08/25 07:01:45;;;;;;;20.25;2.88;;;22.30;99.90;;;;;;4916125;29;20077;-88
2022/08/25 07:04:10;;;;;;;20.65;3.38;;;22.40;99.90;;;;;;4927332;29;20620;-88
2022/08/25 07:06:36;;;;;;;17.30;3.03;;;22.30;99.90;;;;;;4936164;29;20087;-88
2022/08/25 07:09:07;;;;;;;13.32;2.95;;;22.40;99.90;;;;;;4935712;29;20056;-88
2022/08/25 07:11:33;;;;;;;13.90;2.60;;;22.50;99.90;;;;;;4929765;29;20091;-88
2022/08/25 07:14:00;;;;;;;12.68;2.42;;;22.40;99.90;;;;;;4934909;29;20004;-88
2022/08/25 07:16:26;;;;;;;18.27;3.35;;;22.50;99.90;;;;;;4935207;29;20088;-88
2022/08/25 07:18:55;;;;;;;21.33;3.33;;;22.50;99.90;;;;;;4934197;29;20036;-88
2022/08/25 07:21:22;;;;;;;14.15;2.72;;;22.50;99.90;;;;;;4935767;29;20312;-87
2022/08/25 07:23:47;;;;;;;15.95;2.90;;;22.40;99.90;;;;;;4929863;29;20213;-88
2022/08/25 07:26:17;;;;;;;19.30;3.10;;;22.50;99.90;;;;;;4934025;29;20252;-88
2022/08/25 07:28:44;;;;;;;14.27;2.85;;;22.40;99.90;;;;;;4934536;29;20078;-87
2022/08/25 07:31:10;;;;;;;20.17;2.78;;;22.40;99.90;;;;;;4932986;29;20044;-88
2022/08/25 07:33:36;;;;;;;22.15;3.92;;;22.40;99.90;;;;;;4933805;29;20031;-88
2022/08/25 07:36:02;;;;;;;19.40;3.33;;;22.40;99.90;;;;;;4912048;29;20028;-88
2022/08/25 07:38:28;;;;;;;18.48;2.50;;;22.40;99.90;;;;;;4918800;29;20079;-88
2022/08/25 07:41:01;;;;;;;10.82;2.53;;;22.40;99.90;;;;;;4915630;29;20028;-87
2022/08/25 07:43:27;;;;;;;15.52;2.88;;;22.40;99.90;;;;;;4915753;29;20028;-87
2022/08/25 07:45:52;;;;;;;13.07;3.00;;;22.30;99.90;;;;;;4915856;29;20039;-88
2022/08/25 07:48:21;;;;;;;17.45;3.88;;;22.40;99.90;;;;;;4895444;29;20028;-88
2022/08/25 07:50:48;;;;;;;11.38;3.30;;;22.50;99.90;;;;;;4909498;29;20492;-88
2022/08/25 07:53:18;;;;;;;11.93;4.30;;;22.50;99.90;;;;;;4915287;29;20020;-88
2022/08/25 07:55:44;;;;;;;12.25;4.80;;;22.50;99.90;;;;;;4897855;29;20065;-87
2022/08/25 07:58:13;;;;;;;11.23;4.88;;;22.40;99.90;;;;;;4913380;29;20016;-88
2022/08/25 08:00:40;;;;;;;12.55;5.30;;;22.40;99.90;;;;;;4915089;29;20032;-88
2022/08/25 08:03:07;;;;;;;8.93;4.88;;;22.40;99.90;;;;;;4914611;29;20016;-88
2022/08/25 08:05:33;;;;;;;7.22;2.80;;;22.40;99.90;;;;;;4914579;29;20071;-88
2022/08/25 08:07:59;;;;;;;7.20;2.25;;;22.50;99.90;;;;;;4914877;29;20143;-88
2022/08/25 08:10:26;;;;;;;5.57;2.45;;;22.70;99.90;;;;;;4914416;29;20119;-88
2022/08/25 08:12:52;;;;;;;6.68;2.50;;;22.70;99.90;;;;;;4914623;29;20025;-88
2022/08/25 08:15:18;;;;;;;5.82;2.42;;;22.70;99.90;;;;;;4914397;29;20024;-88
2022/08/25 08:17:44;;;;;;;9.18;2.40;;;22.80;99.90;;;;;;4914801;29;20165;-88
2022/08/25 08:20:12;;;;;;;4.57;2.35;;;22.90;99.90;;;;;;4914427;29;20024;-88
2022/08/25 08:22:41;;;;;;;5.45;2.35;;;22.90;99.90;;;;;;4897510;29;20023;-88
2022/08/25 08:25:09;;;;;;;7.43;2.33;;;23.00;99.90;;;;;;4914882;29;20032;-88
2022/08/25 08:27:35;;;;;;;4.05;2.40;;;23.10;99.90;;;;;;4913700;29;20068;-88
2022/08/25 08:30:02;;;;;;;7.45;2.47;;;23.10;99.90;;;;;;4897185;29;20446;-88
2022/08/25 08:32:28;;;;;;;5.28;2.38;;;23.10;99.90;;;;;;4914216;29;20280;-87
2022/08/25 08:34:54;;;;;;;6.05;3.03;;;22.90;99.90;;;;;;4914637;29;20285;-88
2022/08/25 08:37:21;;;;;;;7.38;2.60;;;22.80;99.90;;;;;;4914495;29;20036;-88
2022/08/25 08:39:47;;;;;;;5.43;2.95;;;22.90;99.90;;;;;;4914355;29;20063;-88
2022/08/25 08:42:21;;;;;;;6.60;3.28;;;22.90;99.90;;;;;;4914603;29;20036;-88
2022/08/25 08:45:10;;;;;;;8.43;3.10;;;23.00;99.90;;;;;;4891058;29;20454;-88
2022/08/25 08:47:38;;;;;;;5.63;3.08;;;23.00;99.90;;;;;;4910339;29;20040;-88
2022/08/25 08:50:27;;;;;;;4.78;2.70;;;23.10;99.90;;;;;;4914167;29;20095;-88
2022/08/25 08:53:13;;;;;;;7.18;2.80;;;23.10;99.90;;;;;;4897013;29;20020;-87
2022/08/25 08:55:55;;;;;;;3.70;2.92;;;23.20;99.90;;;;;;4914056;29;20119;-88
2022/08/25 08:58:46;;;;;;;10.18;2.72;;;23.40;99.90;;;;;;4914496;29;20527;-88
2022/08/25 09:01:31;;;;;;;3.38;2.08;;;23.50;99.90;;;;;;4914475;29;20032;-88
2022/08/25 09:04:30;;;;;;;4.63;2.50;;;23.70;99.90;;;;;;4914072;29;20036;-88
2022/08/25 09:06:58;;;;;;;5.90;2.22;;;23.80;99.90;;;;;;4894120;29;20174;-89
2022/08/25 09:09:31;;;;;;;5.25;2.20;;;23.80;99.90;;;;;;4912098;29;20032;-88
2022/08/25 09:12:11;;;;;;;4.70;2.33;;;23.90;99.90;;;;;;4918097;29;20127;-88
2022/08/25 09:15:04;;;;;;;6.10;2.00;;;24.00;99.90;;;;;;4918420;29;20112;-88
2022/08/25 09:18:03;;;;;;;2.42;2.17;;;24.00;99.90;;;;;;4918152;29;20404;-88
2022/08/25 09:20:46;;;;;;;4.00;2.38;;;24.20;99.90;;;;;;4917624;29;20425;-88
2022/08/25 09:23:31;;;;;;;8.38;2.90;;;24.20;99.90;;;;;;4917701;29;20028;-87
2022/08/25 09:26:13;;;;;;;6.85;2.63;;;24.30;99.90;;;;;;4917687;29;20055;-88
2022/08/25 09:28:43;;;;;;;3.20;1.95;;;24.20;99.90;;;;;;4917701;29;20036;-87
2022/08/25 09:31:22;;;;;;;3.33;1.85;;;24.10;99.90;;;;;;4918093;29;20119;-87
2022/08/25 09:33:52;;;;;;;4.22;2.03;;;24.20;99.90;;;;;;4917984;29;20103;-87
2022/08/25 09:36:17;;;;;;;4.32;2.20;;;24.20;99.90;;;;;;4918157;29;20039;-88
2022/08/25 09:38:43;;;;;;;3.75;2.33;;;24.30;99.90;;;;;;4888424;29;20028;-88
2022/08/25 09:41:10;;;;;;;3.00;2.00;;;24.40;99.90;;;;;;4916376;29;20036;-88
2022/08/25 09:43:51;;;;;;;4.30;1.85;;;24.60;99.90;;;;;;4917108;29;20501;-88
2022/08/25 09:46:26;;;;;;;2.58;1.60;;;24.70;99.90;;;;;;4896852;29;20061;-88
2022/08/25 09:48:54;;;;;;;3.78;2.00;;;24.80;99.90;;;;;;4909960;29;20025;-88
2022/08/25 09:51:23;;;;;;;4.50;2.00;;;24.90;99.90;;;;;;4917254;29;20036;-88
2022/08/25 09:54:04;;;;;;;4.32;1.80;;;24.80;99.90;;;;;;4918078;29;20029;-88
2022/08/25 09:56:33;;;;;;;4.95;1.67;;;25.00;99.90;;;;;;4917057;29;20012;-87
2022/08/25 09:59:29;;;;;;;3.50;1.80;;;25.30;99.90;;;;;;4917426;29;20099;-88
2022/08/25 10:01:58;;;;;;;4.07;1.70;;;25.50;99.90;;;;;;4917271;29;20454;-88
2022/08/25 10:04:36;;;;;;;2.80;1.60;;;25.60;99.90;;;;;;4917318;29;20106;-88
2022/08/25 10:07:19;;;;;;;4.68;1.70;;;25.80;99.90;;;;;;4916858;29;20261;-88
2022/08/25 10:09:55;;;;;;;5.25;1.63;;;26.00;99.90;;;;;;4886331;29;20516;-88
2022/08/25 10:12:34;;;;;;;2.85;1.73;;;26.30;99.90;;;;;;4917716;29;20032;-89
2022/08/25 10:15:14;;;;;;;2.03;1.50;;;26.50;99.90;;;;;;4918445;29;20016;-89
2022/08/25 10:17:39;;;;;;;5.63;1.98;;;26.50;99.90;;;;;;4916091;29;20035;-89
2022/08/25 10:20:19;;;;;;;4.25;2.00;;;26.80;99.90;;;;;;4921290;29;20300;-89
2022/08/25 10:22:45;;;;;;;3.78;1.60;;;27.10;99.90;;;;;;4908687;29;20063;-89
2022/08/25 10:25:14;;;;;;;4.65;1.55;;;27.20;99.90;;;;;;4919736;29;20021;-90
2022/08/25 10:27:46;;;;;;;4.75;1.63;;;26.90;99.90;;;;;;4921557;29;20216;-89
2022/08/25 10:30:49;;;;;;;4.70;1.80;;;26.90;99.90;;;;;;4920733;29;20074;-89
2022/08/25 10:33:17;;;;;;;2.30;1.58;;;26.70;99.90;;;;;;4903340;29;20111;-90
2022/08/25 10:35:55;;;;;;;3.78;1.50;;;26.70;99.90;;;;;;4919325;29;20024;-90
2022/08/25 10:38:36;;;;;;;2.67;1.60;;;26.50;99.90;;;;;;4901106;29;20024;-89
2022/08/25 10:41:40;;;;;;;4.10;1.55;;;26.50;99.90;;;;;;4919035;29;20117;-89
2022/08/25 10:47:31;;;;;;;5.93;1.70;;;26.80;99.90;;;;;;4916375;29;20074;-89
2022/08/25 10:50:08;;;;;;;4.47;2.20;;;26.80;99.90;;;;;;4922851;29;20112;-89
2022/08/25 10:52:55;;;;;;;3.47;1.88;;;26.90;99.90;;;;;;4916156;29;20067;-90
2022/08/25 10:55:43;;;;;;;2.22;1.60;;;27.10;99.90;;;;;;4915950;29;20036;-89
2022/08/25 10:58:25;;;;;;;3.58;1.67;;;27.40;99.90;;;;;;4915824;29;20040;-90
2022/08/25 11:01:14;;;;;;;6.22;1.83;;;27.70;99.90;;;;;;4888879;29;20028;-89
2022/08/25 11:03:55;;;;;;;5.15;2.13;;;27.80;99.90;;;;;;4903216;29;20060;-89
2022/08/25 11:06:49;;;;;;;4.93;1.73;;;27.70;99.90;;;;;;4898914;29;20288;-90
2022/08/25 11:09:21;;;;;;;3.25;1.58;;;27.80;99.90;;;;;;4908693;29;20583;-90
2022/08/25 11:11:51;;;;;;;2.80;1.88;;;27.90;99.90;;;;;;4915543;29;20158;-90
2022/08/25 11:14:27;;;;;;;4.13;1.67;;;27.80;99.90;;;;;;4916065;29;20032;-89
2022/08/25 11:17:13;;;;;;;2.72;1.55;;;27.60;99.90;;;;;;4915966;29;20032;-90
2022/08/25 11:19:47;;;;;;;3.90;1.73;;;27.60;99.90;;;;;;4888029;29;20059;-89
2022/08/25 11:22:22;;;;;;;;;;;27.40;99.90;;;;;;4914746;29;20028;-90
2022/08/25 11:25:00;;;;;;;;;;;27.20;99.90;;;;;;4916191;29;19997;-90
2022/08/25 11:28:24;;;;;;;3.63;2.00;;;27.00;99.90;;;;;;4895563;29;19971;-89
2022/08/25 11:30:54;;;;;;;4.80;1.70;;;26.80;99.90;;;;;;4881195;29;20043;-89
2022/08/25 11:33:23;;;;;;;5.63;2.67;;;26.90;99.90;;;;;;4917125;29;20024;-89
2022/08/25 11:36:02;;;;;;;6.65;4.30;;;26.90;99.90;;;;;;4901756;29;20028;-89
2022/08/25 11:38:46;;;;;;;8.15;3.67;;;26.70;99.90;;;;;;4916668;29;20028;-90
2022/08/25 11:41:30;;;;;;;;;;;26.50;99.90;;;;;;4915146;29;20099;-90
2022/08/25 11:44:32;;;;;;;3.33;2.55;;;26.60;99.90;;;;;;4915982;29;20085;-90
2022/08/25 11:47:07;;;;;;;4.63;3.28;;;26.60;99.90;;;;;;4895996;29;20077;-90
2022/08/25 11:49:42;;;;;;;4.55;2.85;;;26.70;99.90;;;;;;4913874;29;20066;-90
2022/08/25 11:52:41;;;;;;;5.70;2.50;;;26.80;99.90;;;;;;4915509;29;20059;-90
2022/08/25 11:55:47;;;;;;;5.75;2.28;;;27.20;99.90;;;;;;4893623;29;20040;-89
2022/08/25 11:58:40;;;;;;;4.85;2.50;;;27.40;99.90;;;;;;4914737;29;20103;-89
2022/08/25 12:01:38;;;;;;;6.73;2.90;;;27.30;99.90;;;;;;4915062;29;20563;-89
2022/08/25 12:04:40;;;;;;;7.05;2.47;;;27.50;99.90;;;;;;4870833;29;20313;-90
2022/08/25 12:07:07;;;;;;;4.22;2.33;;;27.70;99.90;;;;;;4906738;29;20052;-90
2022/08/25 12:09:54;;;;;;;7.10;2.60;;;27.70;99.90;;;;;;4915605;29;20405;-90
2022/08/25 12:12:42;;;;;;;6.47;2.50;;;27.70;99.90;;;;;;4915946;29;20036;-90
2022/08/25 12:15:40;;;;;;;7.63;2.75;;;27.80;99.90;;;;;;4894505;29;20577;-89
2022/08/25 12:18:14;;;;;;;4.95;2.88;;;27.70;99.90;;;;;;4911698;29;20032;-90
2022/08/25 12:20:51;;;;;;;5.80;2.67;;;27.60;99.90;;;;;;4916451;29;20032;-91
2022/08/25 12:23:31;;;;;;;4.85;2.65;;;27.60;99.90;;;;;;4915601;29;20032;-90
2022/08/25 12:26:38;;;;;;;5.05;2.20;;;27.60;99.90;;;;;;4915739;29;20028;-90
2022/08/25 12:29:15;;;;;;;10.32;2.92;;;27.80;99.90;;;;;;4888133;29;20047;-90
2022/08/25 12:31:53;;;;;;;3.83;2.10;;;27.90;99.90;;;;;;4914012;29;20036;-90
2022/08/25 12:34:46;;;;;;;8.00;2.50;;;27.90;99.90;;;;;;4915513;29;20086;-90
2022/08/25 12:37:17;;;;;;;5.50;2.20;;;28.00;99.90;;;;;;4914670;29;20024;-91
2022/08/25 12:40:01;;;;;;;6.53;2.40;;;28.20;99.90;;;;;;4882012;29;20035;-90
2022/08/25 12:42:39;;;;;;;6.30;2.50;;;28.10;99.90;;;;;;4913113;29;20204;-90
2022/08/25 12:45:31;;;;;;;4.22;2.00;;;27.90;99.90;;;;;;4914766;29;20083;-91
2022/08/25 12:48:25;;;;;;;6.28;2.42;;;27.90;99.90;;;;;;4915168;29;20024;-90
2022/08/25 12:51:18;;;;;;;5.43;2.22;;;28.00;99.90;;;;;;4914356;29;20572;-91
2022/08/25 12:54:13;;;;;;;5.47;1.90;;;28.00;99.90;;;;;;4914379;29;20061;-91
2022/08/25 12:56:45;;;;;;;4.30;1.70;;;27.90;99.90;;;;;;4913921;29;20548;-88
2022/08/25 12:59:33;;;;;;;6.55;1.88;;;27.90;99.90;;;;;;4914873;29;20496;-89
2022/08/25 13:02:36;;;;;;;3.42;1.60;;;28.10;99.90;;;;;;4914081;29;20389;-90
2022/08/25 13:05:16;;;;;;;2.58;1.45;;;28.40;99.90;;;;;;4924401;29;20087;-90
2022/08/25 13:08:00;;;;;;;3.50;1.52;;;28.70;99.90;;;;;;4922984;29;20020;-91
2022/08/25 13:10:41;;;;;;;1.85;1.50;;;29.20;99.90;;;;;;4917898;29;20043;-90
2022/08/25 13:13:22;;;;;;;3.35;1.27;;;29.30;99.90;;;;;;4914274;29;20028;-90
2022/08/25 13:16:14;;;;;;;3.28;1.40;;;29.20;99.90;;;;;;4914368;29;20408;-91